Pagina principale
METAR-TAF:

METAR-TAF

Aeroporti :

Aeroporto Internazionale di Kansas City

Kansas City, Missouri, Stati Uniti

latitudine: 39-17-50N, longitudine: 094-43-50W, altezza: 312 m

Osservazione

Il bollettino è stato emesso 52 minuti fa, alle 09:53 UTC
Vento 3 kt da ovest
Temperature 4°C
Umidità 87%
Pressione 1027 hPa
Visibilità: 16.1 km
Cielo sereno

METAR: KMCI 170953Z 26003KT 10SM CLR 04/02 A3033 RMK AO2 SLP272 T00390022 $

Ora: 05:45 (10:45 UTC)

Previsione

Il bollettino è stato emesso 5 ore e 25 minuti fa, alle 05:20 UTC
Previsione valida dal 17 alle 06 UTC al 18 alle 06 UTC
Vento 6 kt da ovest/sud-ovest
Visibilità: 10 km
Cielo sereno
A partire da 17 alle 1500 UTC
Vento 8 kt da nord
Visibilità: 10 km
Nubi sparse ad un'altezza di 25000 ft

TAF: KMCI 170520Z 1706/1806 25006KT P6SM SKC FM171500 01008KT P6SM SCT250

Osservazioni e previsioni meteorologiche di più di 4000 aeroporti (messaggi METAR e TAF).

Le stazioni disponibili sono rappresentate dai dischi gialli e rossi sulla carta.

Puntare il mouse per vedere il nome della stazione.

Clicca sopra per visualizzare le osservazioni e previsioni meteorologiche.

Per cambiare la mappa : fare clic sui pulsanti verdi con una croce nera per ingrandire, il pulsante verde con un trattino per diminuire, o sulla freccia verde per le mappe adiacenti.


METAR-TAF: